createdAt,value
2019-03-27T00:00:11.415Z,1.42
2019-03-27T00:05:08.234Z,1.40
2019-03-27T00:07:36.834Z,1.50
2019-03-27T00:10:08.494Z,1.32
2019-03-27T00:12:37.936Z,1.50
2019-03-27T00:15:13.309Z,1.57
2019-03-27T00:17:41.332Z,1.57
2019-03-27T00:20:11.871Z,1.70
2019-03-27T00:22:40.542Z,1.85
2019-03-27T00:25:10.304Z,1.67
2019-03-27T00:27:38.915Z,1.60
2019-03-27T00:30:09.877Z,1.52
2019-03-27T00:32:38.568Z,1.52
2019-03-27T00:35:08.223Z,1.52
2019-03-27T00:37:36.874Z,1.50
2019-03-27T00:40:06.487Z,1.80
2019-03-27T00:42:35.148Z,1.75
2019-03-27T00:45:08.347Z,1.62
2019-03-27T00:47:36.998Z,1.57
2019-03-27T00:50:10.065Z,1.42
2019-03-27T00:52:38.737Z,1.42
2019-03-27T00:55:08.550Z,1.70
2019-03-27T00:57:37.584Z,1.52
2019-03-27T01:00:26.215Z,2.35
2019-03-27T01:02:54.985Z,1.47
2019-03-27T01:05:23.589Z,1.47
2019-03-27T01:07:52.191Z,1.62
2019-03-27T01:10:20.839Z,1.60
2019-03-27T01:12:49.490Z,1.87
2019-03-27T01:15:18.142Z,1.55
2019-03-27T01:17:46.815Z,1.70
2019-03-27T01:20:15.476Z,1.52
2019-03-27T01:22:44.324Z,1.57
2019-03-27T01:25:13.116Z,1.55
2019-03-27T01:27:41.721Z,1.70
2019-03-27T01:30:10.905Z,1.80
2019-03-27T01:32:39.561Z,2.15
2019-03-27T01:35:08.421Z,1.85
2019-03-27T01:37:37.074Z,1.72
2019-03-27T01:40:06.386Z,1.62
2019-03-27T01:42:35.034Z,1.90
2019-03-27T01:45:06.645Z,1.77
2019-03-27T01:47:35.465Z,1.85
2019-03-27T01:50:07.144Z,1.75
2019-03-27T01:52:35.875Z,2.20
2019-03-27T01:55:06.192Z,1.95
2019-03-27T01:57:34.853Z,1.98
2019-03-27T02:00:05.515Z,1.77
2019-03-27T02:02:34.120Z,2.02
2019-03-27T02:05:03.443Z,1.90
2019-03-27T02:07:32.098Z,1.92
2019-03-27T02:10:00.702Z,2.35
2019-03-27T02:12:29.348Z,2.00
2019-03-27T02:14:57.951Z,2.02
2019-03-27T02:17:26.602Z,2.40
2019-03-27T02:19:55.259Z,2.58
2019-03-27T02:22:25.677Z,2.55
2019-03-27T02:24:54.315Z,1.98
2019-03-27T02:27:22.922Z,2.22
2019-03-27T02:29:51.568Z,1.92
2019-03-27T02:32:20.928Z,2.02
2019-03-27T02:34:49.806Z,2.22
2019-03-27T02:37:18.527Z,2.20
2019-03-27T02:39:47.172Z,2.50
2019-03-27T02:42:15.776Z,2.12
2019-03-27T02:44:44.420Z,2.40
2019-03-27T02:47:13.028Z,2.27
2019-03-27T02:49:41.682Z,2.20
2019-03-27T02:52:10.287Z,2.33
2019-03-27T02:54:38.889Z,2.10
2019-03-27T02:57:07.572Z,1.98
2019-03-27T02:59:36.282Z,2.05
2019-03-27T03:02:05.225Z,2.80
2019-03-27T03:04:33.929Z,2.50
2019-03-27T03:07:02.540Z,2.50
2019-03-27T03:09:31.257Z,2.33
2019-03-27T03:11:59.861Z,2.47
2019-03-27T03:14:28.507Z,2.45
2019-03-27T03:16:57.124Z,2.42
2019-03-27T03:19:25.838Z,2.80
2019-03-27T03:21:54.519Z,2.47
2019-03-27T03:24:23.129Z,2.70
2019-03-27T03:26:51.804Z,2.45
2019-03-27T03:29:20.524Z,2.75
2019-03-27T03:31:49.163Z,2.92
2019-03-27T03:34:17.846Z,2.35
2019-03-27T03:36:46.579Z,2.90
2019-03-27T03:39:15.167Z,2.62
2019-03-27T03:41:43.992Z,3.27
2019-03-27T03:44:12.592Z,3.10
2019-03-27T03:46:58.405Z,3.05
2019-03-27T03:49:11.701Z,3.00
2019-03-27T03:51:40.356Z,3.22
2019-03-27T03:54:09.396Z,3.02
2019-03-27T03:56:40.959Z,3.45
2019-03-27T03:59:14.464Z,3.02
2019-03-27T04:04:14.183Z,2.80
2019-03-27T04:06:42.834Z,3.00
2019-03-27T04:09:11.487Z,2.70
2019-03-27T04:11:40.120Z,2.83
2019-03-27T04:14:08.775Z,3.22
2019-03-27T04:16:37.382Z,3.35
2019-03-27T04:19:06.072Z,3.17
2019-03-27T04:21:34.677Z,4.03
2019-03-27T04:24:03.657Z,3.37
2019-03-27T04:26:33.687Z,3.50
2019-03-27T04:29:02.572Z,3.12
2019-03-27T04:31:31.171Z,3.60
2019-03-27T04:33:59.830Z,3.27
2019-03-27T04:36:28.435Z,3.50
2019-03-27T04:38:57.036Z,3.72
2019-03-27T04:41:25.687Z,3.47
2019-03-27T04:43:54.337Z,3.27
2019-03-27T04:46:23.073Z,3.50
2019-03-27T04:48:51.672Z,3.08
2019-03-27T04:51:20.272Z,3.33
2019-03-27T04:53:48.926Z,2.98
2019-03-27T04:56:17.533Z,3.52
2019-03-27T04:58:46.184Z,3.30
2019-03-27T05:01:14.828Z,3.60
2019-03-27T05:03:43.482Z,3.47
2019-03-27T05:06:12.405Z,3.62
2019-03-27T05:08:41.010Z,4.17
2019-03-27T05:11:09.742Z,3.67
2019-03-27T05:13:38.346Z,3.92
2019-03-27T05:16:06.950Z,3.92
2019-03-27T05:18:35.602Z,4.83
2019-03-27T05:21:04.255Z,5.05
2019-03-27T05:23:32.859Z,4.65
2019-03-27T05:26:01.512Z,4.15
2019-03-27T05:28:30.112Z,5.62
2019-03-27T05:30:58.761Z,4.60
2019-03-27T05:33:27.413Z,5.03
2019-03-27T05:35:56.071Z,5.33
2019-03-27T05:38:24.673Z,5.40
2019-03-27T05:40:53.277Z,5.40
2019-03-27T05:43:22.198Z,5.00
2019-03-27T05:45:51.343Z,4.80
2019-03-27T05:48:20.074Z,5.37
2019-03-27T05:50:48.674Z,5.10
2019-03-27T05:53:17.324Z,4.80
2019-03-27T05:55:45.932Z,4.83
2019-03-27T05:58:14.583Z,5.20
2019-03-27T06:00:43.188Z,5.53
2019-03-27T06:03:11.917Z,4.75
2019-03-27T06:05:40.566Z,5.30
2019-03-27T06:08:09.169Z,4.60
2019-03-27T06:10:37.818Z,4.78
2019-03-27T06:13:06.421Z,4.83
2019-03-27T06:15:35.072Z,5.70
2019-03-27T06:18:12.882Z,4.60
2019-03-27T06:20:34.050Z,4.85
2019-03-27T06:23:02.656Z,4.78
2019-03-27T06:25:31.425Z,4.60
2019-03-27T06:28:00.033Z,4.80
2019-03-27T06:30:28.702Z,5.65
2019-03-27T06:32:57.346Z,5.17
2019-03-27T06:35:25.963Z,5.12
2019-03-27T06:37:54.613Z,4.35
2019-03-27T06:40:23.217Z,4.67
2019-03-27T06:42:51.821Z,5.17
2019-03-27T06:45:20.470Z,5.17
2019-03-27T06:47:49.121Z,4.75
2019-03-27T06:50:17.723Z,5.35
2019-03-27T06:52:46.459Z,5.47
2019-03-27T06:55:15.068Z,5.20
2019-03-27T06:57:43.841Z,4.87
2019-03-27T07:00:12.880Z,4.85
2019-03-27T07:02:41.533Z,5.55
2019-03-27T07:05:10.714Z,5.12
2019-03-27T07:07:39.435Z,5.47
2019-03-27T07:10:08.680Z,5.55
2019-03-27T07:12:37.281Z,5.17
2019-03-27T07:15:06.950Z,5.58
2019-03-27T07:17:35.639Z,5.10
2019-03-27T07:20:06.808Z,5.67
2019-03-27T07:22:35.503Z,5.65
2019-03-27T07:25:07.166Z,5.58
2019-03-27T07:27:35.769Z,5.92
2019-03-27T07:30:06.827Z,5.45
2019-03-27T07:32:35.433Z,4.60
2019-03-27T07:35:05.600Z,4.83
2019-03-27T07:37:34.200Z,5.50
2019-03-27T07:40:03.672Z,4.92
2019-03-27T07:42:32.324Z,4.78
2019-03-27T07:45:01.057Z,5.20
2019-03-27T07:47:29.653Z,5.08
2019-03-27T07:49:58.313Z,5.08
2019-03-27T07:52:26.956Z,4.78
2019-03-27T07:54:55.607Z,4.83
2019-03-27T07:57:24.208Z,5.65
2019-03-27T07:59:52.864Z,5.90
2019-03-27T08:02:21.587Z,5.15
2019-03-27T08:04:50.186Z,5.58
2019-03-27T08:07:26.609Z,5.50
2019-03-27T08:09:49.220Z,6.25
2019-03-27T08:12:17.892Z,6.03
2019-03-27T08:14:46.574Z,5.95
2019-03-27T08:17:15.182Z,5.60
2019-03-27T08:19:43.834Z,6.22
2019-03-27T08:22:12.437Z,5.85
2019-03-27T08:24:41.100Z,6.90
2019-03-27T08:27:09.705Z,5.47
2019-03-27T08:29:38.362Z,6.72
2019-03-27T08:32:06.964Z,5.75
2019-03-27T08:34:35.621Z,5.55
2019-03-27T08:37:04.398Z,5.78
2019-03-27T08:39:33.054Z,6.05
2019-03-27T08:42:01.837Z,6.12
2019-03-27T08:44:30.503Z,5.92
2019-03-27T08:46:59.112Z,6.00
2019-03-27T08:49:27.721Z,5.25
2019-03-27T08:51:56.372Z,5.97
2019-03-27T08:54:24.990Z,6.12
2019-03-27T08:56:53.636Z,5.78
2019-03-27T08:59:22.238Z,5.95
2019-03-27T09:01:50.887Z,5.72
2019-03-27T09:04:19.544Z,5.78
2019-03-27T09:06:48.150Z,5.17
2019-03-27T09:09:16.813Z,5.53
2019-03-27T09:11:45.415Z,5.28
2019-03-27T09:14:14.063Z,5.75
2019-03-27T09:16:42.675Z,5.50
2019-03-27T09:19:11.330Z,5.53
2019-03-27T09:21:39.934Z,5.85
2019-03-27T09:24:08.603Z,5.55
2019-03-27T09:26:37.213Z,5.75
2019-03-27T09:29:08.377Z,5.53
2019-03-27T09:31:44.889Z,5.35
2019-03-27T09:34:07.449Z,5.45
2019-03-27T09:36:36.056Z,5.75
2019-03-27T09:39:08.885Z,5.35
2019-03-27T09:41:37.632Z,4.60
2019-03-27T09:44:06.286Z,4.75
2019-03-27T09:46:34.941Z,4.17
2019-03-27T09:49:03.759Z,3.90
2019-03-27T09:51:32.436Z,3.80
2019-03-27T09:54:01.099Z,4.22
2019-03-27T09:56:29.706Z,3.85
2019-03-27T09:58:58.309Z,4.15
2019-03-27T10:01:26.967Z,3.50
2019-03-27T10:03:55.576Z,4.20
2019-03-27T10:06:24.236Z,3.67
2019-03-27T10:08:52.840Z,3.42
2019-03-27T10:11:23.885Z,3.67
2019-03-27T10:13:51.832Z,3.62
2019-03-27T10:16:20.558Z,3.62
2019-03-27T10:18:49.160Z,3.45
2019-03-27T10:21:17.775Z,3.70
2019-03-27T10:23:46.427Z,3.67
2019-03-27T10:26:15.100Z,3.50
2019-03-27T10:28:43.703Z,3.65
2019-03-27T10:31:12.308Z,3.58
2019-03-27T10:33:40.968Z,3.72
2019-03-27T10:36:09.620Z,4.12
2019-03-27T10:38:41.467Z,3.70
2019-03-27T10:41:08.654Z,3.35
2019-03-27T10:43:37.314Z,2.77
2019-03-27T10:46:05.997Z,3.37
2019-03-27T10:48:34.657Z,2.83
2019-03-27T10:51:03.371Z,2.80
2019-03-27T10:53:32.031Z,3.40
2019-03-27T10:56:00.639Z,3.40
2019-03-27T10:58:29.296Z,3.02
2019-03-27T11:00:57.913Z,2.83
2019-03-27T11:03:26.570Z,2.80
2019-03-27T11:05:55.226Z,2.87
2019-03-27T11:08:23.833Z,2.58
2019-03-27T11:10:52.552Z,3.00
2019-03-27T11:13:21.162Z,3.00
2019-03-27T11:15:49.817Z,2.50
2019-03-27T11:18:18.426Z,2.75
2019-03-27T11:20:47.088Z,2.50
2019-03-27T11:23:15.696Z,2.90
2019-03-27T11:25:44.360Z,2.20
2019-03-27T11:28:13.051Z,2.17
2019-03-27T11:30:42.214Z,2.08
2019-03-27T11:33:11.349Z,2.40
2019-03-27T11:35:40.157Z,2.50
2019-03-27T11:38:08.949Z,2.30
2019-03-27T11:40:37.669Z,1.87
2019-03-27T11:43:06.277Z,2.10
2019-03-27T11:45:34.980Z,2.22
2019-03-27T11:48:04.051Z,2.50
2019-03-27T11:50:44.086Z,2.40
2019-03-27T11:53:03.385Z,2.42
2019-03-27T11:55:32.078Z,2.35
2019-03-27T11:58:00.738Z,2.47
2019-03-27T12:00:29.348Z,2.25
2019-03-27T12:02:58.136Z,2.08
2019-03-27T12:05:26.791Z,2.25
2019-03-27T12:07:55.400Z,2.20
2019-03-27T12:10:24.057Z,2.30
2019-03-27T12:12:52.667Z,2.50
2019-03-27T12:15:39.688Z,2.60
2019-03-27T12:18:09.705Z,2.25
2019-03-27T12:20:38.432Z,2.30
2019-03-27T12:23:07.263Z,2.50
2019-03-27T12:25:35.921Z,2.20
2019-03-27T12:28:05.301Z,2.50
2019-03-27T12:30:34.063Z,2.02
2019-03-27T12:33:02.677Z,2.20
2019-03-27T12:35:31.340Z,2.40
2019-03-27T12:37:59.953Z,2.30
2019-03-27T12:40:28.617Z,2.77
2019-03-27T12:42:57.289Z,2.00
2019-03-27T12:45:26.022Z,2.08
2019-03-27T12:47:54.623Z,2.30
2019-03-27T12:50:23.282Z,2.10
2019-03-27T12:52:51.963Z,2.65
2019-03-27T12:55:20.645Z,2.72
2019-03-27T12:57:49.301Z,2.30
2019-03-27T13:00:18.352Z,2.83
2019-03-27T13:02:47.012Z,2.77
2019-03-27T13:05:15.689Z,2.40
2019-03-27T13:07:49.914Z,2.50
2019-03-27T13:10:14.694Z,2.62
2019-03-27T13:12:43.304Z,2.80
2019-03-27T13:15:12.102Z,2.47
2019-03-27T13:17:40.843Z,2.85
2019-03-27T13:20:11.604Z,2.58
2019-03-27T13:22:40.211Z,2.47
2019-03-27T13:25:09.778Z,2.85
2019-03-27T13:27:39.394Z,2.67
2019-03-27T13:30:09.269Z,2.98
2019-03-27T13:32:37.948Z,2.50
2019-03-27T13:35:07.258Z,2.22
2019-03-27T13:37:35.943Z,2.50
2019-03-27T13:40:11.495Z,2.50
2019-03-27T13:42:40.299Z,2.30
2019-03-27T13:45:10.922Z,2.15
2019-03-27T13:47:39.615Z,2.55
2019-03-27T13:50:12.908Z,2.55
2019-03-27T13:52:41.764Z,2.15
2019-03-27T13:55:10.503Z,2.62
2019-03-27T13:57:39.166Z,2.40
2019-03-27T14:00:09.983Z,2.30
2019-03-27T14:02:38.587Z,2.70
2019-03-27T14:05:08.080Z,2.50
2019-03-27T14:07:36.991Z,2.30
2019-03-27T14:10:08.357Z,2.20
2019-03-27T14:12:36.967Z,2.37
2019-03-27T14:15:09.258Z,2.08
2019-03-27T14:17:38.109Z,2.60
2019-03-27T14:20:08.564Z,2.00
2019-03-27T14:22:37.264Z,1.82
2019-03-27T14:25:08.330Z,2.20
2019-03-27T14:27:37.238Z,2.15
2019-03-27T14:30:09.654Z,2.08
2019-03-27T14:32:38.395Z,2.10
2019-03-27T14:35:07.811Z,1.98
2019-03-27T14:37:36.485Z,1.82
2019-03-27T14:40:09.522Z,2.05
2019-03-27T14:42:38.180Z,2.22
2019-03-27T14:45:09.910Z,2.40
2019-03-27T14:47:39.190Z,2.45
2019-03-27T14:50:09.119Z,2.45
2019-03-27T14:52:37.815Z,1.98
2019-03-27T14:55:10.490Z,2.10
2019-03-27T14:57:39.497Z,1.87
2019-03-27T15:00:12.122Z,2.27
2019-03-27T15:02:40.735Z,1.63
2019-03-27T15:05:10.207Z,1.80
2019-03-27T15:07:38.812Z,1.90
2019-03-27T15:10:09.221Z,2.40
2019-03-27T15:12:37.945Z,1.98
2019-03-27T15:15:09.752Z,2.15
2019-03-27T15:17:38.725Z,1.62
2019-03-27T15:20:08.774Z,2.30
2019-03-27T15:22:37.722Z,1.50
2019-03-27T15:25:06.997Z,1.17
2019-03-27T15:27:35.671Z,1.55
2019-03-27T15:30:12.730Z,1.40
2019-03-27T15:32:41.440Z,1.20
2019-03-27T15:35:10.213Z,1.30
2019-03-27T15:37:38.870Z,1.20
2019-03-27T15:40:07.841Z,1.25
2019-03-27T15:42:37.355Z,1.37
2019-03-27T15:45:08.659Z,1.42
2019-03-27T15:47:37.382Z,1.32
2019-03-27T15:50:06.652Z,1.40
2019-03-27T15:52:36.785Z,1.30
2019-03-27T15:55:07.114Z,1.30
2019-03-27T15:57:35.723Z,1.30
2019-03-27T16:00:06.487Z,1.30
2019-03-27T16:02:35.126Z,1.50
2019-03-27T16:05:05.645Z,1.92
2019-03-27T16:07:34.452Z,1.70
2019-03-27T16:10:05.075Z,2.30
2019-03-27T16:12:36.357Z,2.08
2019-03-27T16:15:06.673Z,1.77
2019-03-27T16:17:35.334Z,1.90
2019-03-27T16:20:05.949Z,1.45
2019-03-27T16:22:34.682Z,1.80
2019-03-27T16:25:04.233Z,1.90
2019-03-27T16:27:32.896Z,1.70
2019-03-27T16:30:01.502Z,1.92
2019-03-27T16:32:30.120Z,1.77
2019-03-27T16:34:58.773Z,1.77
2019-03-27T16:37:27.381Z,1.70
2019-03-27T16:39:56.044Z,1.90
2019-03-27T16:42:24.699Z,1.67
2019-03-27T16:44:53.375Z,1.40
2019-03-27T16:47:22.475Z,1.57
2019-03-27T16:49:51.161Z,1.80
2019-03-27T16:52:19.766Z,1.65
2019-03-27T16:54:48.804Z,1.98
2019-03-27T16:57:17.414Z,1.60
2019-03-27T16:59:46.142Z,2.47
2019-03-27T17:02:14.881Z,1.77
2019-03-27T17:04:43.490Z,2.00
2019-03-27T17:07:12.097Z,1.90
2019-03-27T17:09:40.756Z,1.80
2019-03-27T17:12:09.368Z,1.57
2019-03-27T17:14:38.029Z,1.57
2019-03-27T17:17:06.631Z,1.80
2019-03-27T17:19:35.292Z,1.62
2019-03-27T17:22:03.949Z,1.87
2019-03-27T17:24:32.605Z,1.80
2019-03-27T17:27:01.220Z,1.80
2019-03-27T17:29:29.886Z,1.67
2019-03-27T17:31:58.770Z,1.60
2019-03-27T17:34:27.370Z,1.90
2019-03-27T17:36:56.026Z,1.70
2019-03-27T17:39:24.688Z,1.60
2019-03-27T17:41:53.346Z,1.77
2019-03-27T17:44:22.144Z,1.77
2019-03-27T17:46:50.800Z,2.08
2019-03-27T17:49:19.487Z,1.98
2019-03-27T17:51:48.147Z,1.95
2019-03-27T17:54:20.695Z,2.27
2019-03-27T17:56:47.133Z,2.02
2019-03-27T17:59:15.820Z,2.10
2019-03-27T18:01:44.475Z,2.02
2019-03-27T18:04:13.136Z,2.50
2019-03-27T18:06:43.093Z,2.65
2019-03-27T18:09:11.735Z,2.77
2019-03-27T18:11:40.421Z,2.10
2019-03-27T18:14:09.071Z,2.37
2019-03-27T18:16:37.729Z,2.30
2019-03-27T18:19:06.382Z,2.70
2019-03-27T18:21:35.038Z,2.40
2019-03-27T18:24:03.692Z,2.60
2019-03-27T18:26:32.439Z,2.55
2019-03-27T18:29:01.050Z,2.95
2019-03-27T18:31:29.727Z,2.70
2019-03-27T18:33:58.334Z,2.98
2019-03-27T18:36:26.943Z,3.20
2019-03-27T18:38:58.581Z,3.00
2019-03-27T18:41:27.236Z,3.08
2019-03-27T18:43:55.907Z,2.92
2019-03-27T18:46:24.585Z,3.15
2019-03-27T18:48:53.195Z,3.67
2019-03-27T18:51:21.856Z,3.02
2019-03-27T18:53:59.453Z,3.27
2019-03-27T18:56:20.849Z,3.20
2019-03-27T18:58:49.454Z,3.52
2019-03-27T19:01:18.110Z,3.05
2019-03-27T19:03:46.720Z,3.15
2019-03-27T19:06:15.408Z,3.02
2019-03-27T19:08:44.094Z,2.98
2019-03-27T19:11:12.745Z,3.60
2019-03-27T19:13:41.355Z,3.08
2019-03-27T19:16:10.014Z,3.08
2019-03-27T19:18:38.635Z,3.62
2019-03-27T19:21:07.326Z,3.37
2019-03-27T19:23:35.935Z,3.30
2019-03-27T19:26:04.693Z,4.10
2019-03-27T19:28:33.304Z,3.45
2019-03-27T19:31:02.092Z,3.70
2019-03-27T19:33:30.746Z,3.75
2019-03-27T19:35:59.359Z,4.30
2019-03-27T19:38:28.012Z,3.83
2019-03-27T19:40:56.709Z,3.45
2019-03-27T19:43:25.368Z,3.45
2019-03-27T19:45:57.253Z,3.75
2019-03-27T19:48:24.429Z,3.25
2019-03-27T19:50:53.039Z,3.52
2019-03-27T19:53:21.699Z,3.85
2019-03-27T19:55:50.375Z,3.60
2019-03-27T19:58:19.046Z,3.12
2019-03-27T20:00:47.716Z,4.22
2019-03-27T20:03:16.326Z,3.98
2019-03-27T20:05:45.116Z,3.33
2019-03-27T20:08:13.727Z,3.10
2019-03-27T20:10:42.386Z,3.33
2019-03-27T20:13:10.993Z,3.52
2019-03-27T20:15:39.650Z,3.35
2019-03-27T20:18:08.304Z,3.10
2019-03-27T20:20:36.914Z,3.12
2019-03-27T20:23:14.976Z,3.15
2019-03-27T20:25:35.914Z,3.08
2019-03-27T20:28:04.520Z,3.20
2019-03-27T20:30:33.191Z,2.87
2019-03-27T20:33:01.798Z,3.02
2019-03-27T20:35:30.408Z,3.02
2019-03-27T20:37:59.070Z,3.33
2019-03-27T20:40:27.934Z,2.83
2019-03-27T20:42:56.717Z,3.20
2019-03-27T20:45:25.375Z,3.02
2019-03-27T20:47:53.989Z,3.10
2019-03-27T20:50:22.715Z,4.30
2019-03-27T20:52:51.371Z,3.80
2019-03-27T20:55:30.178Z,4.05
2019-03-27T20:57:50.370Z,3.10
2019-03-27T21:00:19.616Z,3.05
2019-03-27T21:02:48.267Z,3.15
2019-03-27T21:05:17.054Z,2.92
2019-03-27T21:07:45.741Z,3.15
2019-03-27T21:10:14.884Z,3.60
2019-03-27T21:12:43.541Z,3.37
2019-03-27T21:15:12.308Z,3.25
2019-03-27T21:17:40.959Z,3.40
2019-03-27T21:20:10.103Z,3.65
2019-03-27T21:22:38.765Z,3.58
2019-03-27T21:25:09.758Z,3.25
2019-03-27T21:27:38.651Z,3.05
2019-03-27T21:30:11.289Z,3.90
2019-03-27T21:32:39.944Z,3.20
2019-03-27T21:35:08.616Z,4.30
2019-03-27T21:37:37.227Z,3.55
2019-03-27T21:40:07.496Z,3.72
2019-03-27T21:42:36.276Z,4.05
2019-03-27T21:45:09.474Z,3.52
2019-03-27T21:47:38.135Z,3.77
2019-03-27T21:50:07.933Z,3.60
2019-03-27T21:52:36.584Z,3.22
2019-03-27T21:55:07.403Z,3.75
2019-03-27T21:57:36.056Z,3.72
2019-03-27T22:00:06.929Z,3.72
2019-03-27T22:02:35.584Z,4.10
2019-03-27T22:05:06.193Z,3.87
2019-03-27T22:07:34.845Z,3.92
2019-03-27T22:10:06.262Z,4.12
2019-03-27T22:12:37.984Z,4.80
2019-03-27T22:15:08.409Z,4.22
2019-03-27T22:17:37.013Z,4.53
2019-03-27T22:20:08.780Z,4.60
2019-03-27T22:22:37.391Z,4.17
2019-03-27T22:25:08.264Z,4.45
2019-03-27T22:27:36.917Z,5.15
2019-03-27T22:30:08.313Z,5.35
2019-03-27T22:32:36.969Z,4.60
2019-03-27T22:35:07.499Z,4.33
2019-03-27T22:37:36.212Z,4.75
2019-03-27T22:40:06.898Z,4.72
2019-03-27T22:42:35.551Z,4.35
2019-03-27T22:45:05.568Z,4.45
2019-03-27T22:47:34.222Z,4.42
2019-03-27T22:50:07.869Z,4.42
2019-03-27T22:52:35.410Z,5.10
2019-03-27T22:55:07.667Z,4.87
2019-03-27T22:57:36.321Z,4.33
2019-03-27T23:00:12.461Z,4.97
2019-03-27T23:02:41.118Z,4.83
2019-03-27T23:05:10.115Z,5.00
2019-03-27T23:07:38.719Z,5.20
2019-03-27T23:10:07.551Z,4.33
2019-03-27T23:12:36.156Z,4.55
2019-03-27T23:15:10.683Z,4.67
2019-03-27T23:17:39.289Z,4.70
2019-03-27T23:20:09.465Z,5.05
2019-03-27T23:22:38.145Z,4.90
2019-03-27T23:25:08.110Z,4.80
2019-03-27T23:27:36.719Z,4.70
2019-03-27T23:30:09.927Z,4.65
2019-03-27T23:32:38.658Z,4.53
2019-03-27T23:35:08.318Z,4.67
2019-03-27T23:37:36.927Z,4.72
2019-03-27T23:40:06.995Z,4.22
2019-03-27T23:42:35.645Z,5.00
2019-03-27T23:45:06.866Z,4.25
2019-03-27T23:47:35.516Z,4.83
2019-03-27T23:50:07.980Z,4.62
2019-03-27T23:52:36.587Z,4.25
2019-03-27T23:55:09.125Z,4.08
2019-03-27T23:57:37.830Z,4.40
